KHWD/HWD METAR and TAF weather

Enter ICAO airport designator
Station Type Date Time Source
KHWD METAR 2022/12/05 14:14 UTC NOAA

KHWD 051414Z AUTO 14006KT 6SM -RA BR BKN029 BKN042 OVC048 10/08 A3003 RMK AO2 RAB1355 P0001 T01000083


Station Type Date Time Source
KHWD Decoded METAR 2022/12/05 14:14 UTC NOAA

HAYWARD AIR TERMINAL, CA, United States (KHWD) 37-40N 122-07W 21M
Dec 05, 2022 - 09:14 AM EST / 2022.12.05 1414 UTC
Wind: from the SE (140 degrees) at 7 MPH (6 KT):0
Visibility: 6 mile(s):0
Sky conditions: overcast
Weather: light rain; mist
Precipitation last hour: 0.01 inches
Temperature: 50.0 F (10.0 C)
Dew Point: 46.9 F (8.3 C)
Relative Humidity: 89%
Pressure (altimeter): 30.03 in. Hg (1016 hPa)
ob: KHWD 051414Z AUTO 14006KT 6SM -RA BR BKN029 BKN042 OVC048 10/08 A3003 RMK AO2 RAB1355 P0001 T01000083
cycle: 14

Station Type Date Time Source
KHWD TAF UTC NOAA

Error!

Example: see airport list